Airport Name : Cochin Intl

Other Name : Cochin Intl

ICAO : VOCI

IATA : COK

FAA :

Latitude : 10.151994

Longitude : 76.401906

Country : India

Local Date and Time : 20 Jul 2024 11:41

 

TAF (Terminal Aerodrome Forecast)

TAF VOCI 200500Z 2006/2112 25010KT 5000 BR SCT012 FEW025CB BKN080 TEMPO 2012/2015 30010KT 3000 RA BR FEW008 SCT012 FEW025CB BKN080 TEMPO 2020/2024 VRB03KT 1500 RA BR FEW006 SC012 BKN080 BECMG 2103/2105 25005KT 4000 BR FEW008 SCT012 BKN080 TEMPO 2108/2112 31010KT 2000 RA BR FEW008 SCT012 FEW025CB BKN080

 

METAR (METeorological Aerodrome Report)

VOCI 200600Z 27010KT 6000 FEW010 SCT012 FEW025CB BKN080 29/25 Q1008 NOSIG

VOCI 200530Z 27010G17KT 5000 BR FEW010 SCT012 FEW025CB BKN080 29/25 Q1009 NOSIG

VOCI 200500Z 27008KT 5000 BR FEW010 SCT012 FEW025CB BKN080 29/25 Q1009 NOSIG

VOCI 200430Z 25006KT 5000 BR FEW010 SCT012 BKN080 29/25 Q1009 NOSIG

VOCI 200400Z 25005KT 4500 BR FEW006 SCT012 BKN080 28/25 Q1009 BECMG 5000 BR

VOCI 200330Z 25003KT 4000 BR FEW006 SCT012 BKN080 28/25 Q1009 NOSIG

VOCI 200300Z VRB02KT 4000 BR FEW012 BKN080 28/25 Q1009 NOSIG

VOCI 200230Z 20002KT 3000 BR FEW012 SCT080 27/26 Q1008 NOSIG